EastWest Aircraft Sales has several offices across the USA. See map for information on the nearest airstrips.

Naples Municipal Airport

Available data for KAPF from the past 2 hours
NAPLES MUNICIPAL, FL
Metar
KAPF 142053Z 15017G24KT 10SM CLR 27/20 A2996 RMK AO2 PK WND 15027/2034 SLP143 T02720200 55009

20:53 UTC

Wind: 150° 17kt

Visibility: 10 SM

Sky:

Temp: 27 deg C / 80.6 deg F

Dewpoint: 20 deg C / 68 deg F

Pressure: 29.96 inHg

TAF
KAPF 141739Z 1418/1518 16017G27KT P6SM FEW025 BKN120 FM150000 16007KT P6SM OVC060 PROB30 1504/1506 TSRA BKN025CB FM150600 19005KT 6SM SHRA VCTS SCT025 OVC035CB PROB30 1509/1515 6SM -TSRA BKN025CB FM151500 19010KT P6SM VCSH FEW015 SCT025 BKN050

Hillsboro Airport

Available data for KHIO from the past 2 hours
HILLSBORO/PORTLD, OR
Metar
KHIO 142053Z COR 14004KT 10SM OVC120 08/04 A2957 RMK AO2 SLP015 T00780039 58015

20:53 UTC

Wind: 140° 4kt

Visibility: 10 SM

Sky: OVC 12000 ft

Temp: 8 deg C / 46.4 deg F

Dewpoint: 4 deg C / 39.2 deg F

Pressure: 29.57 inHg

TAF
KHIO 141727Z 1418/1518 17007KT P6SM FEW001 SCT150 FM142000 17008G15KT P6SM SCT040 OVC150 FM142200 19020G30KT P6SM -RA BKN025 OVC040 TEMPO 1422/1424 19030G40KT 5SM RA BR SCT012 OVC024 FM150100 21013G23KT P6SM -SHRA SCT025 BKN040 FM150600 22006KT P6SM VCSH SCT025 BKN040 FM151300 VRB03KT 6SM BR OVC100